This demonstration page uses our WeatherBlox Daily Observations layout. Learn more.

39.29038, -76.61219

Hourly Observations for July 27, 2015

Temp ( °F °C ) Dew Point ( °F °C ) Humidity (%) Winds ( mph kmh ) Pressure ( in mb ) Visibility ( mi km ) Precip ( " mm )
12:54 am 00:54 undefined 80 26.7 63 17.2 56 56 undefined N/A 29.97 1015 N/A 0 0
1:54 am 01:54 undefined 76 24.4 66 18.9 72 72 undefined N/A 29.98 1015 N/A 0 0
2:54 am 02:54 undefined 72 22.2 70 21.1 94 94 undefined N/A 29.98 1015 N/A 0.33 8.382
3:54 am 03:54 Cloudy 71 21.7 68 20 90 90 undefined N/A 30.09 1019 N/A 0.17 4.318
4:54 am 04:54 undefined 72 22.2 69 20.6 91 91 undefined N/A 29.97 1015 N/A 0.03 0.762
5:54 am 05:54 Cloudy 74 23.3 70 21.1 88 88 undefined N/A 29.98 1015 N/A 0 0
6:54 am 06:54 undefined 73 22.8 69 20.6 87 87 undefined N/A 29.98 1015 N/A 0 0
7:54 am 07:54 undefined 74 23.3 70 21.1 88 88 undefined N/A 29.99 1016 N/A 0 0
8:54 am 08:54 undefined 76 24.4 70 21.1 82 82 undefined N/A 30 1016 N/A 0 0
9:54 am 09:54 Cloudy 78 25.6 70 21.1 76 76 undefined N/A 30 1016 N/A 0 0
10:54 am 10:54 undefined 81 27.2 70 21.1 69 69 undefined N/A 30 1016 N/A 0 0
11:54 am 11:54 undefined 81 27.2 69 20.6 67 67 undefined N/A 30.01 1016 N/A 0 0
12:54 pm 12:54 undefined 79 26.1 72 22.2 79 79 undefined N/A 30.01 1016 N/A 0 0
1:54 pm 13:54 Mostly Cloudy 81 27.2 72 22.2 74 74 undefined N/A 30 1016 N/A 0 0
2:54 pm 14:54 undefined 83 28.3 72 22.2 70 70 undefined N/A 29.98 1015 N/A 0 0
3:54 pm 15:54 undefined 83 28.3 71 21.7 67 67 undefined N/A 29.98 1015 N/A 0 0
4:54 pm 16:54 undefined 84 28.9 71 21.7 65 65 undefined N/A 29.97 1015 N/A 0 0
5:54 pm 17:54 undefined 84 28.9 70 21.1 63 63 undefined N/A 29.96 1014 N/A 0 0
6:54 pm 18:54 Partly Cloudy 84 28.9 71 21.7 65 65 undefined N/A 29.96 1015 N/A 0 0
7:54 pm 19:54 undefined 82 27.8 73 22.8 74 74 undefined N/A 29.98 1015 N/A 0 0
8:54 pm 20:54 undefined 81 27.2 73 22.8 77 77 undefined N/A 29.98 1015 N/A 0 0
9:54 pm 21:54 undefined 80 26.7 74 23.3 82 82 undefined N/A 30 1016 N/A 0 0
10:54 pm 22:54 undefined 80 26.7 74 23.3 82 82 undefined N/A 30 1016 N/A 0 0
11:54 pm 23:54 undefined 79 26.1 74 23.3 85 85 undefined N/A 30.01 1016 N/A 0 0

Powered by AerisWeather